Time;durP1;ratioP1;P1;durP2;ratioP2;P2;SDS_P1;SDS_P2;PMS_P1;PMS_P2;Temp;Humidity;BMP_temperature;BMP_pressure;BME280_temperature;BME280_humidity;BME280_pressure;Samples;Min_cycle;Max_cycle;Signal;HPM_P1;HPM_P2
2023/01/24 00:06:39;;;;;;;0.60;0.40;;;0.50;99.90;;;;;;20898907;28;20103;-59
2023/01/24 00:16:41;;;;;;;0.95;0.43;;;0.50;99.90;;;;;;20905570;28;20041;-54
2023/01/24 00:26:43;;;;;;;1.75;0.47;;;0.50;99.90;;;;;;20912504;28;20075;-59
2023/01/24 00:36:44;;;;;;;0.57;0.40;;;0.50;99.90;;;;;;20912739;28;20036;-58
2023/01/24 00:46:46;;;;;;;0.82;0.45;;;0.30;99.90;;;;;;20911715;28;20033;-60
2023/01/24 00:56:48;;;;;;;0.60;0.40;;;0.20;99.90;;;;;;20906922;28;20455;-59
2023/01/24 01:06:50;;;;;;;1.00;0.80;;;0.30;99.90;;;;;;20906783;28;20044;-59
2023/01/24 01:16:52;;;;;;;0.63;0.50;;;0.30;99.90;;;;;;20907678;28;20036;-59
2023/01/24 01:26:54;;;;;;;1.33;0.80;;;0.20;99.90;;;;;;20908707;28;20409;-60
2023/01/24 01:36:55;;;;;;;1.05;0.65;;;0.10;99.90;;;;;;20890250;28;20029;-61
2023/01/24 01:46:57;;;;;;;1.35;0.80;;;0.00;99.90;;;;;;20907712;28;20477;-60
2023/01/24 01:57:09;;;;;;;2.47;0.90;;;0.00;99.90;;;;;;20906986;28;20037;-60
2023/01/24 02:07:13;;;;;;;1.27;0.88;;;-0.10;99.90;;;;;;20905728;28;20394;-60
2023/01/24 02:17:20;;;;;;;1.88;1.00;;;-0.10;99.90;;;;;;20904792;28;20047;-61
2023/01/24 02:27:22;;;;;;;1.63;1.00;;;-0.40;99.90;;;;;;20903323;28;20025;-53
2023/01/24 02:37:25;;;;;;;2.08;0.88;;;-0.80;99.90;;;;;;20884955;28;20037;-62
2023/01/24 02:47:32;;;;;;;2.67;1.20;;;-1.10;99.90;;;;;;20884974;28;20037;-61
2023/01/24 03:07:54;;;;;;;1.40;1.10;;;-0.80;99.90;;;;;;20899870;28;20029;-52
2023/01/24 03:49:02;;;;;;;2.00;1.30;;;-0.60;99.90;;;;;;20884873;28;20298;-53
2023/01/24 03:59:09;;;;;;;3.25;1.55;;;-0.90;99.90;;;;;;20897919;28;20041;-60
2023/01/24 04:09:13;;;;;;;2.55;1.58;;;-1.10;99.90;;;;;;20897123;28;20029;-61
2023/01/24 04:19:17;;;;;;;2.60;1.50;;;-1.30;99.90;;;;;;20896728;28;20064;-61
2023/01/24 04:29:20;;;;;;;2.67;1.30;;;-1.20;99.90;;;;;;20896108;28;20382;-61
2023/01/24 04:39:24;;;;;;;1.77;1.17;;;-0.80;99.90;;;;;;20894869;28;20029;-61
2023/01/24 04:49:36;;;;;;;1.92;1.20;;;-0.60;99.90;;;;;;20908999;28;20029;-61
2023/01/24 04:59:39;;;;;;;1.52;0.90;;;-1.00;99.90;;;;;;20890409;28;20079;-61
2023/01/24 05:09:42;;;;;;;2.30;1.23;;;-1.30;99.90;;;;;;20889459;28;20039;-61
2023/01/24 05:19:48;;;;;;;1.40;1.00;;;-1.50;99.90;;;;;;20909291;28;20057;-61
2023/01/24 05:29:49;;;;;;;1.20;0.90;;;-1.50;99.90;;;;;;20891079;28;20025;-60
2023/01/24 05:39:52;;;;;;;1.48;0.80;;;-1.10;99.90;;;;;;20890527;28;20025;-61
2023/01/24 05:49:54;;;;;;;1.13;0.70;;;-0.90;99.90;;;;;;20889812;28;20556;-61
2023/01/24 05:59:55;;;;;;;0.80;0.40;;;-0.90;99.90;;;;;;20906240;28;20045;-61
2023/01/24 06:09:57;;;;;;;1.20;0.90;;;-1.00;99.90;;;;;;20884807;28;20036;-60
2023/01/24 06:19:59;;;;;;;1.00;0.60;;;-1.00;99.90;;;;;;20886427;28;20029;-61
2023/01/24 06:30:02;;;;;;;1.23;0.82;;;-1.00;99.90;;;;;;20884275;28;20355;-61
2023/01/24 06:40:08;;;;;;;1.20;0.70;;;-1.00;99.90;;;;;;20900666;28;20478;-60
2023/01/24 06:50:19;;;;;;;1.60;0.93;;;-1.00;99.90;;;;;;20902720;28;20025;-61
2023/01/24 07:00:21;;;;;;;1.27;0.80;;;-1.20;99.90;;;;;;20902303;28;20445;-60
2023/01/24 07:10:22;;;;;;;1.90;1.00;;;-1.40;99.90;;;;;;20901803;28;20037;-60
2023/01/24 07:20:24;;;;;;;1.88;0.82;;;-1.50;99.90;;;;;;20900784;28;20170;-60
2023/01/24 07:30:27;;;;;;;1.15;0.57;;;-1.40;99.90;;;;;;20900011;28;20167;-61
2023/01/24 07:40:29;;;;;;;1.42;0.70;;;-1.20;99.90;;;;;;20896593;28;20462;-61
2023/01/24 07:50:31;;;;;;;0.30;0.30;;;-0.90;99.90;;;;;;20900082;28;20447;-61
2023/01/24 08:00:32;;;;;;;0.50;0.30;;;-0.20;99.90;;;;;;20899695;28;20111;-54
2023/01/24 08:10:34;;;;;;;0.40;0.30;;;1.00;99.90;;;;;;20895993;28;20116;-64
2023/01/24 08:20:36;;;;;;;0.30;0.20;;;1.70;99.90;;;;;;20898971;28;20037;-55
2023/01/24 08:30:38;;;;;;;0.60;0.30;;;2.40;99.90;;;;;;20898590;28;21110;-65
2023/01/24 08:40:39;;;;;;;0.40;0.20;;;2.80;99.90;;;;;;20908397;28;20075;-56
2023/01/24 08:50:41;;;;;;;0.43;0.32;;;2.80;99.90;;;;;;20913629;28;20391;-63
2023/01/24 09:00:42;;;;;;;0.22;0.20;;;2.80;99.90;;;;;;20911118;28;20453;-65
2023/01/24 09:10:44;;;;;;;0.55;0.28;;;3.20;99.90;;;;;;20910925;28;20056;-65
2023/01/24 09:20:46;;;;;;;0.45;0.30;;;3.60;99.90;;;;;;20890493;28;20091;-65
2023/01/24 09:30:49;;;;;;;0.52;0.30;;;4.00;99.90;;;;;;20909207;28;20025;-63
2023/01/24 09:40:56;;;;;;;0.20;0.20;;;4.50;99.90;;;;;;20890431;28;20028;-62
2023/01/24 09:51:03;;;;;;;0.43;0.30;;;4.70;99.90;;;;;;20907510;28;20021;-61
2023/01/24 10:01:14;;;;;;;0.32;0.25;;;5.10;99.90;;;;;;20907285;28;20375;-59
2023/01/24 10:11:51;;;;;;;0.40;0.20;;;5.40;99.90;;;;;;20906384;28;20033;-60
2023/01/24 10:22:23;;;;;;;0.40;0.20;;;6.10;99.90;;;;;;20904549;28;20112;-61
2023/01/24 10:32:34;;;;;;;0.40;0.20;;;6.40;99.90;;;;;;20906226;28;20021;-60
2023/01/24 10:42:36;;;;;;;0.30;0.17;;;6.00;99.90;;;;;;20903479;28;20043;-63
2023/01/24 10:52:38;;;;;;;0.10;0.10;;;6.30;99.90;;;;;;20903689;28;20433;-55
2023/01/24 11:02:40;;;;;;;0.35;0.20;;;6.80;99.90;;;;;;20884090;28;20044;-58
2023/01/24 11:13:00;;;;;;;0.22;0.10;;;6.60;99.90;;;;;;20901707;28;20470;-57
2023/01/24 11:23:16;;;;;;;0.05;0.05;;;7.30;98.90;;;;;;20900447;28;20028;-58
2023/01/24 11:33:40;;;;;;;0.15;0.00;;;6.80;99.90;;;;;;20900975;28;20036;-58
2023/01/24 11:44:31;;;;;;;0.10;0.00;;;6.70;99.50;;;;;;20896968;28;20033;-57
2023/01/24 11:54:43;;;;;;;0.30;0.10;;;7.40;98.70;;;;;;20725409;28;20046;-56
2023/01/24 12:04:48;;;;;;;0.10;0.00;;;6.90;98.30;;;;;;20723132;28;20088;-57
2023/01/24 12:15:05;;;;;;;0.25;0.10;;;6.40;98.50;;;;;;20736604;28;20085;-57
2023/01/24 12:25:30;;;;;;;0.10;0.05;;;6.50;99.10;;;;;;20782676;28;20037;-54
2023/01/24 12:35:38;;;;;;;0.13;0.00;;;6.50;98.60;;;;;;20910459;28;20055;-57
2023/01/24 12:45:42;;;;;;;0.20;0.00;;;6.50;97.70;;;;;;20915227;28;20025;-57
2023/01/24 12:56:24;;;;;;;0.75;0.10;;;6.90;97.30;;;;;;20911804;28;20041;-57
2023/01/24 13:07:24;;;;;;;0.20;0.10;;;7.20;95.60;;;;;;20900714;28;20041;-56
2023/01/24 13:17:31;;;;;;;0.13;0.03;;;7.90;95.40;;;;;;20573898;28;20101;-57
2023/01/24 13:27:39;;;;;;;0.30;0.13;;;7.20;95.30;;;;;;20572986;28;20082;-57
2023/01/24 13:37:41;;;;;;;0.03;0.00;;;6.20;97.40;;;;;;20573576;28;20051;-58
2023/01/24 13:47:43;;;;;;;0.00;0.00;;;5.40;98.00;;;;;;20743559;28;20102;-57
2023/01/24 13:57:45;;;;;;;0.10;0.00;;;5.10;97.90;;;;;;20904833;28;20499;-56
2023/01/24 14:07:47;;;;;;;0.25;0.00;;;5.40;98.10;;;;;;20906082;28;20482;-58
2023/01/24 14:17:51;;;;;;;0.20;0.03;;;5.60;98.30;;;;;;20904784;28;20033;-58
2023/01/24 14:27:59;;;;;;;1.50;0.98;;;5.50;97.70;;;;;;20905654;28;20025;-58
2023/01/24 14:38:15;;;;;;;3.35;1.95;;;5.00;99.90;;;;;;20903563;28;20029;-58
2023/01/24 14:48:23;;;;;;;4.05;2.60;;;4.60;99.90;;;;;;20903086;28;20033;-58
2023/01/24 14:58:28;;;;;;;4.57;2.60;;;4.10;99.90;;;;;;20902440;28;20106;-59
2023/01/24 15:08:31;;;;;;;4.85;2.90;;;3.60;99.90;;;;;;20883853;28;20020;-58
2023/01/24 15:18:41;;;;;;;5.65;3.13;;;3.30;99.90;;;;;;20900867;28;20430;-58
2023/01/24 15:28:43;;;;;;;3.87;2.93;;;3.20;99.90;;;;;;20901983;28;20446;-58
2023/01/24 15:38:52;;;;;;;4.75;2.70;;;2.80;99.90;;;;;;20900503;28;20067;-59
2023/01/24 15:48:59;;;;;;;3.78;2.45;;;2.40;99.90;;;;;;20907585;28;20055;-59
2023/01/24 15:59:01;;;;;;;5.18;2.65;;;1.90;99.90;;;;;;20916250;28;20316;-59
2023/01/24 16:09:02;;;;;;;5.00;3.10;;;1.40;99.90;;;;;;20910852;28;20516;-58
2023/01/24 16:19:16;;;;;;;3.97;2.38;;;1.00;99.90;;;;;;20914892;28;20033;-58
2023/01/24 16:29:29;;;;;;;4.10;2.10;;;0.70;99.90;;;;;;20914256;28;20083;-58
2023/01/24 16:39:30;;;;;;;4.63;2.20;;;0.30;99.90;;;;;;20908243;28;20025;-59
2023/01/24 16:49:32;;;;;;;3.90;2.40;;;0.20;99.90;;;;;;20911940;28;20088;-58
2023/01/24 16:59:34;;;;;;;4.30;2.60;;;0.20;99.90;;;;;;20909819;28;20107;-58
2023/01/24 17:09:35;;;;;;;4.35;2.58;;;0.20;99.90;;;;;;20910996;28;20029;-57
2023/01/24 17:19:37;;;;;;;5.65;3.53;;;0.20;99.90;;;;;;20909506;28;20021;-59
2023/01/24 17:29:39;;;;;;;5.43;3.28;;;0.30;99.90;;;;;;20905507;28;20402;-58
2023/01/24 17:39:41;;;;;;;4.85;2.95;;;0.30;99.90;;;;;;20886433;28;20465;-58
2023/01/24 17:49:43;;;;;;;6.90;4.10;;;0.50;99.90;;;;;;20907195;28;20098;-58
2023/01/24 17:59:44;;;;;;;3.75;2.47;;;0.60;99.90;;;;;;20906660;28;20125;-59
2023/01/24 18:09:46;;;;;;;4.38;2.78;;;0.70;99.90;;;;;;20889087;28;20098;-58
2023/01/24 18:19:47;;;;;;;1.90;0.50;;;0.80;99.90;;;;;;20904494;28;20370;-58
2023/01/24 18:29:49;;;;;;;0.50;0.40;;;0.90;99.90;;;;;;20905646;28;20402;-58
2023/01/24 18:39:51;;;;;;;0.68;0.35;;;1.20;99.90;;;;;;20903831;28;20040;-57
2023/01/24 18:49:52;;;;;;;1.10;0.40;;;1.30;99.90;;;;;;20903040;28;20048;-58
2023/01/24 18:59:54;;;;;;;1.20;0.60;;;1.40;99.90;;;;;;20901993;28;20033;-58
2023/01/24 19:09:56;;;;;;;1.10;0.60;;;1.30;99.90;;;;;;20900001;28;20287;-58
2023/01/24 19:19:58;;;;;;;0.95;0.50;;;1.20;99.90;;;;;;20900232;28;20021;-58
2023/01/24 19:30:00;;;;;;;0.82;0.43;;;1.30;99.90;;;;;;20900705;28;20098;-59
2023/01/24 19:40:02;;;;;;;0.60;0.20;;;1.30;99.90;;;;;;20901545;28;20037;-58
2023/01/24 19:50:04;;;;;;;0.40;0.28;;;1.50;99.90;;;;;;20900040;28;20041;-57
2023/01/24 20:00:09;;;;;;;0.20;0.17;;;1.50;99.90;;;;;;20899553;28;20079;-57
2023/01/24 20:10:11;;;;;;;1.13;0.20;;;1.60;99.90;;;;;;20899370;28;20059;-56
2023/01/24 20:20:13;;;;;;;0.30;0.22;;;1.60;99.90;;;;;;20898707;28;20029;-59
2023/01/24 20:30:16;;;;;;;0.52;0.30;;;1.50;99.90;;;;;;20899883;28;20029;-60
2023/01/24 20:40:18;;;;;;;0.52;0.30;;;1.40;99.90;;;;;;20909870;28;20036;-60
2023/01/24 20:50:19;;;;;;;0.30;0.30;;;1.30;99.90;;;;;;20912463;28;20044;-59
2023/01/24 21:00:21;;;;;;;0.90;0.20;;;1.30;99.90;;;;;;20911418;28;20041;-59
2023/01/24 21:10:23;;;;;;;0.57;0.30;;;1.40;99.90;;;;;;20910980;28;20361;-58
2023/01/24 21:20:26;;;;;;;0.70;0.40;;;1.40;99.90;;;;;;20909935;28;20043;-59
2023/01/24 21:30:28;;;;;;;0.47;0.20;;;1.40;99.90;;;;;;20909233;28;20095;-59
2023/01/24 21:41:53;;;;;;;0.50;0.30;;;1.50;99.90;;;;;;20908803;28;20536;-59
2023/01/24 21:50:51;;;;;;;0.55;0.30;;;1.60;99.90;;;;;;20907446;28;20092;-59
2023/01/24 22:00:53;;;;;;;0.68;0.40;;;1.70;99.90;;;;;;20903539;28;20107;-58
2023/01/24 22:10:58;;;;;;;0.57;0.40;;;1.70;99.90;;;;;;20903503;28;20033;-58
2023/01/24 22:21:00;;;;;;;0.60;0.40;;;1.50;99.90;;;;;;20904783;28;20029;-59
2023/01/24 22:31:11;;;;;;;0.55;0.40;;;1.50;99.90;;;;;;20904829;28;20025;-58
2023/01/24 22:41:13;;;;;;;1.35;0.40;;;1.50;99.90;;;;;;20903998;28;20028;-59
2023/01/24 22:51:15;;;;;;;0.88;0.30;;;1.40;99.90;;;;;;20903445;28;20025;-59
2023/01/24 23:01:16;;;;;;;0.63;0.32;;;1.60;99.90;;;;;;20901292;28;20480;-58
2023/01/24 23:11:19;;;;;;;0.50;0.28;;;1.70;99.90;;;;;;20901847;28;20025;-58
2023/01/24 23:21:26;;;;;;;1.73;0.40;;;1.80;99.90;;;;;;20899481;28;20359;-58
2023/01/24 23:31:28;;;;;;;0.43;0.30;;;1.70;99.90;;;;;;20897733;28;20025;-58
2023/01/24 23:41:30;;;;;;;0.60;0.40;;;1.70;99.90;;;;;;20900736;28;20362;-58
2023/01/24 23:51:31;;;;;;;1.08;0.52;;;1.70;99.90;;;;;;20901122;28;20033;-58
